createdAt,value
2022-09-16T00:00:43.372Z,11.64
2022-09-16T00:03:11.748Z,11.88
2022-09-16T00:05:47.654Z,11.84
2022-09-16T00:08:15.523Z,11.73
2022-09-16T00:10:43.901Z,11.85
2022-09-16T00:13:12.785Z,11.96
2022-09-16T00:15:49.084Z,11.91
2022-09-16T00:18:16.079Z,11.95
2022-09-16T00:20:51.836Z,11.92
2022-09-16T00:23:19.906Z,11.90
2022-09-16T00:25:52.470Z,11.87
2022-09-16T00:28:21.683Z,11.82
2022-09-16T00:30:49.637Z,11.91
2022-09-16T00:33:17.429Z,11.73
2022-09-16T00:35:44.450Z,12.10
2022-09-16T00:38:11.550Z,12.25
2022-09-16T00:40:49.749Z,12.29
2022-09-16T00:43:19.117Z,12.26
2022-09-16T00:45:55.397Z,12.21
2022-09-16T00:48:25.767Z,11.97
2022-09-16T00:51:05.067Z,12.12
2022-09-16T00:53:42.888Z,12.13
2022-09-16T00:56:13.072Z,12.16
2022-09-16T00:58:48.483Z,11.86
2022-09-16T01:01:15.622Z,12.10
2022-09-16T01:03:51.568Z,12.02
2022-09-16T01:06:19.361Z,11.89
2022-09-16T01:08:46.459Z,12.22
2022-09-16T01:11:13.584Z,12.29
2022-09-16T01:13:42.259Z,11.88
2022-09-16T01:16:16.310Z,12.14
2022-09-16T01:18:52.125Z,12.29
2022-09-16T01:21:31.314Z,12.29
2022-09-16T01:24:40.938Z,12.37
2022-09-16T01:27:30.133Z,12.27
2022-09-16T01:30:12.144Z,12.28
2022-09-16T01:32:39.113Z,12.20
2022-09-16T01:35:25.562Z,12.21
2022-09-16T01:38:02.340Z,12.08
2022-09-16T01:40:39.178Z,12.25
2022-09-16T01:43:25.361Z,11.85
2022-09-16T01:46:00.123Z,12.29
2022-09-16T01:48:39.565Z,12.23
2022-09-16T01:51:14.875Z,12.14
2022-09-16T01:53:44.269Z,12.35
2022-09-16T01:56:22.798Z,12.28
2022-09-16T01:58:59.077Z,12.33
2022-09-16T02:02:03.707Z,12.29
2022-09-16T02:04:40.277Z,12.25
2022-09-16T02:07:10.890Z,12.24
2022-09-16T02:09:43.514Z,11.87
2022-09-16T02:12:13.181Z,12.19
2022-09-16T02:14:43.650Z,12.22
2022-09-16T02:17:14.783Z,12.04
2022-09-16T02:19:51.958Z,12.20
2022-09-16T02:22:36.442Z,12.25
2022-09-16T02:25:05.765Z,12.11
2022-09-16T02:27:36.426Z,12.04
2022-09-16T02:30:08.386Z,11.97
2022-09-16T02:32:39.834Z,12.01
2022-09-16T02:35:12.193Z,11.97
2022-09-16T02:37:45.167Z,11.81
2022-09-16T02:40:36.176Z,11.91
2022-09-16T02:43:03.892Z,12.11
2022-09-16T02:45:44.237Z,11.94
2022-09-16T02:48:39.662Z,11.64
2022-09-16T02:51:29.221Z,11.92
2022-09-16T02:54:06.479Z,11.82
2022-09-16T02:56:40.514Z,11.86
2022-09-16T02:59:11.672Z,11.84
2022-09-16T03:01:42.960Z,11.85
2022-09-16T03:04:12.410Z,11.84
2022-09-16T03:06:39.603Z,11.74
2022-09-16T03:09:09.592Z,11.56
2022-09-16T03:11:57.615Z,11.74
2022-09-16T03:14:43.056Z,11.88
2022-09-16T03:17:22.756Z,11.86
2022-09-16T03:20:20.449Z,11.98
2022-09-16T03:22:47.442Z,11.83
2022-09-16T03:25:41.711Z,11.82
2022-09-16T03:28:41.187Z,11.84
2022-09-16T03:31:13.086Z,11.92
2022-09-16T03:33:53.369Z,11.75
2022-09-16T03:36:26.064Z,11.79
2022-09-16T03:38:54.154Z,11.76
2022-09-16T03:41:21.203Z,11.91
2022-09-16T03:43:54.577Z,11.92
2022-09-16T03:46:21.884Z,11.85
2022-09-16T03:48:48.769Z,11.87
2022-09-16T03:51:15.881Z,11.82
2022-09-16T03:53:42.692Z,11.93
2022-09-16T03:56:09.520Z,11.87
2022-09-16T03:58:36.347Z,11.98
2022-09-16T04:01:03.730Z,11.91
2022-09-16T04:03:33.473Z,11.91
2022-09-16T04:06:00.453Z,12.03
2022-09-16T04:08:27.279Z,11.90
2022-09-16T04:10:57.952Z,11.89
2022-09-16T04:13:25.197Z,11.81
2022-09-16T04:15:52.026Z,11.86
2022-09-16T04:18:18.877Z,11.80
2022-09-16T04:20:45.799Z,11.76
2022-09-16T04:23:12.859Z,11.76
2022-09-16T04:25:40.940Z,11.84
2022-09-16T04:28:08.038Z,11.90
2022-09-16T04:30:36.194Z,11.86
2022-09-16T04:33:03.105Z,11.94
2022-09-16T04:35:30.846Z,11.77
2022-09-16T04:37:57.645Z,11.79
2022-09-16T04:40:24.919Z,11.65
2022-09-16T04:42:51.811Z,11.64
2022-09-16T04:45:19.011Z,11.74
2022-09-16T04:47:45.830Z,11.28
2022-09-16T04:50:12.628Z,11.58
2022-09-16T04:52:39.448Z,11.48
2022-09-16T04:55:06.392Z,11.40
2022-09-16T04:57:33.232Z,11.32
2022-09-16T05:00:00.047Z,11.36
2022-09-16T05:02:28.556Z,11.31
2022-09-16T05:04:55.514Z,11.30
2022-09-16T05:07:22.342Z,11.36
2022-09-16T05:09:49.123Z,11.23
2022-09-16T05:12:15.943Z,11.33
2022-09-16T05:14:42.758Z,11.36
2022-09-16T05:17:09.577Z,11.27
2022-09-16T05:19:36.373Z,11.23
2022-09-16T05:22:07.059Z,11.14
2022-09-16T05:24:35.063Z,11.29
2022-09-16T05:27:01.969Z,11.19
2022-09-16T05:29:28.767Z,11.17
2022-09-16T05:31:55.587Z,11.22
2022-09-16T05:34:23.194Z,11.13
2022-09-16T05:36:50.680Z,11.22
2022-09-16T05:39:23.808Z,11.23
2022-09-16T05:41:58.994Z,11.13
2022-09-16T05:44:26.533Z,11.10
2022-09-16T05:46:53.756Z,11.27
2022-09-16T05:49:21.172Z,11.24
2022-09-16T05:51:48.620Z,11.23
2022-09-16T05:54:15.688Z,11.28
2022-09-16T05:56:42.637Z,11.24
2022-09-16T05:59:10.765Z,11.13
2022-09-16T06:01:37.648Z,11.14
2022-09-16T06:04:06.336Z,11.16
2022-09-16T06:06:40.397Z,11.18
2022-09-16T06:09:11.565Z,11.16
2022-09-16T06:11:42.577Z,11.20
2022-09-16T06:14:09.757Z,11.26
2022-09-16T06:16:37.054Z,11.37
2022-09-16T06:19:05.302Z,11.43
2022-09-16T06:21:32.336Z,11.51
2022-09-16T06:23:59.117Z,11.55
2022-09-16T06:26:26.514Z,11.16
2022-09-16T06:28:53.348Z,11.72
2022-09-16T06:31:21.826Z,11.86
2022-09-16T06:33:50.412Z,11.87
2022-09-16T06:36:18.543Z,12.11
2022-09-16T06:38:46.264Z,12.23
2022-09-16T06:41:14.318Z,12.31
2022-09-16T06:43:41.260Z,12.36
2022-09-16T06:46:13.264Z,12.41
2022-09-16T06:48:41.102Z,12.60
2022-09-16T06:51:10.178Z,12.93
2022-09-16T06:53:37.216Z,12.90
2022-09-16T06:56:06.556Z,12.82
2022-09-16T06:58:34.082Z,12.94
2022-09-16T07:01:08.024Z,12.99
2022-09-16T07:03:39.022Z,12.91
2022-09-16T07:06:05.999Z,13.04
2022-09-16T07:08:33.215Z,13.23
2022-09-16T07:11:01.156Z,13.22
2022-09-16T07:13:28.197Z,13.31
2022-09-16T07:16:12.337Z,13.40
2022-09-16T07:18:40.533Z,13.63
2022-09-16T07:21:07.378Z,13.78
2022-09-16T07:23:35.061Z,13.60
2022-09-16T07:26:01.838Z,13.51
2022-09-16T07:28:28.926Z,13.72
2022-09-16T07:30:55.767Z,13.80
2022-09-16T07:33:22.685Z,14.02
2022-09-16T07:35:49.455Z,13.94
2022-09-16T07:38:16.265Z,14.11
2022-09-16T07:40:43.117Z,13.94
2022-09-16T07:43:10.189Z,13.95
2022-09-16T07:45:37.059Z,13.96
2022-09-16T07:48:04.006Z,13.73
2022-09-16T07:50:30.816Z,13.87
2022-09-16T07:52:57.606Z,13.85
2022-09-16T07:55:24.407Z,13.71
2022-09-16T07:57:51.249Z,13.64
2022-09-16T08:00:18.117Z,13.41
2022-09-16T08:02:45.079Z,13.27
2022-09-16T08:05:13.250Z,13.14
2022-09-16T08:07:40.192Z,13.08
2022-09-16T08:10:07.226Z,13.31
2022-09-16T08:12:35.333Z,13.39
2022-09-16T08:15:02.495Z,13.61
2022-09-16T08:17:32.031Z,14.22
2022-09-16T08:20:00.398Z,14.34
2022-09-16T08:22:27.215Z,14.30
2022-09-16T08:24:54.038Z,13.94
2022-09-16T08:27:20.859Z,13.73
2022-09-16T08:29:47.924Z,13.93
2022-09-16T08:32:14.953Z,14.17
2022-09-16T08:34:41.834Z,14.49
2022-09-16T08:37:09.196Z,14.51
2022-09-16T08:39:36.084Z,14.38
2022-09-16T08:42:09.506Z,14.14
2022-09-16T08:45:00.295Z,14.10
2022-09-16T08:47:27.555Z,13.77
2022-09-16T08:49:55.868Z,13.78
2022-09-16T08:52:38.985Z,13.86
2022-09-16T08:55:10.456Z,13.86
2022-09-16T08:57:42.853Z,14.08
2022-09-16T09:00:14.142Z,14.30
2022-09-16T09:02:56.495Z,14.54
2022-09-16T09:05:36.337Z,14.88
2022-09-16T09:08:17.321Z,14.96
2022-09-16T09:11:03.352Z,14.88
2022-09-16T09:13:39.691Z,15.07
2022-09-16T09:16:25.251Z,14.79
2022-09-16T09:18:58.124Z,14.68
2022-09-16T09:21:31.755Z,14.54
2022-09-16T09:24:04.999Z,14.46
2022-09-16T09:26:49.717Z,14.53
2022-09-16T09:29:24.813Z,14.42
2022-09-16T09:31:54.806Z,14.17
2022-09-16T09:34:27.921Z,14.01
2022-09-16T09:37:17.435Z,14.09
2022-09-16T09:39:59.704Z,14.00
2022-09-16T09:42:26.611Z,14.22
2022-09-16T09:45:04.577Z,14.35
2022-09-16T09:47:35.696Z,14.44
2022-09-16T09:50:10.597Z,14.85
2022-09-16T09:52:45.921Z,15.31
2022-09-16T09:55:20.683Z,15.54
2022-09-16T09:57:53.529Z,15.73
2022-09-16T10:00:23.073Z,15.75
2022-09-16T10:02:50.267Z,15.50
2022-09-16T10:05:27.992Z,15.42
2022-09-16T10:08:07.067Z,15.44
2022-09-16T10:10:34.437Z,15.26
2022-09-16T10:13:10.870Z,15.94
2022-09-16T10:15:38.029Z,16.28
2022-09-16T10:18:13.165Z,16.24
2022-09-16T10:20:42.185Z,16.03
2022-09-16T10:23:29.703Z,15.80
2022-09-16T10:26:16.425Z,15.86
2022-09-16T10:28:53.285Z,15.83
2022-09-16T10:31:20.255Z,15.73
2022-09-16T10:33:48.092Z,15.77
2022-09-16T10:36:22.530Z,15.71
2022-09-16T10:39:03.935Z,16.01
2022-09-16T10:41:33.827Z,16.00
2022-09-16T10:44:02.267Z,16.05
2022-09-16T10:46:29.983Z,16.07
2022-09-16T10:49:01.881Z,15.98
2022-09-16T10:51:31.392Z,15.83
2022-09-16T10:53:59.951Z,16.00
2022-09-16T10:56:31.842Z,16.04
2022-09-16T10:59:08.428Z,16.10
2022-09-16T11:01:48.486Z,16.19
2022-09-16T11:04:28.022Z,16.06
2022-09-16T11:06:54.813Z,16.05
2022-09-16T11:09:40.492Z,16.18
2022-09-16T11:12:13.154Z,16.33
2022-09-16T11:14:51.485Z,16.46
2022-09-16T11:17:25.293Z,16.30
2022-09-16T11:20:11.062Z,16.70
2022-09-16T11:22:37.823Z,16.95
2022-09-16T11:25:40.247Z,17.05
2022-09-16T11:28:25.349Z,17.18
2022-09-16T11:31:12.991Z,17.43
2022-09-16T11:33:58.701Z,17.74
2022-09-16T11:36:45.799Z,17.65
2022-09-16T11:39:21.112Z,17.54
2022-09-16T11:41:48.238Z,17.29
2022-09-16T11:44:15.829Z,17.41
2022-09-16T11:46:42.644Z,17.15
2022-09-16T11:49:19.405Z,17.24
2022-09-16T11:52:05.042Z,17.11
2022-09-16T11:54:47.014Z,16.77
2022-09-16T11:57:16.510Z,16.47
2022-09-16T11:59:43.279Z,16.17
2022-09-16T12:02:25.512Z,15.70
2022-09-16T12:05:03.037Z,15.11
2022-09-16T12:07:38.389Z,14.88
2022-09-16T12:10:25.013Z,14.68
2022-09-16T12:12:56.580Z,14.63
2022-09-16T12:15:28.241Z,14.52
2022-09-16T12:18:01.142Z,14.47
2022-09-16T12:20:29.858Z,14.63
2022-09-16T12:23:04.094Z,14.60
2022-09-16T12:25:35.617Z,14.56
2022-09-16T12:28:23.498Z,14.46
2022-09-16T12:30:55.742Z,14.73
2022-09-16T12:33:26.708Z,14.83
2022-09-16T12:36:01.384Z,14.94
2022-09-16T12:38:28.369Z,15.00
2022-09-16T12:41:14.083Z,15.09
2022-09-16T12:43:40.917Z,14.94
2022-09-16T12:46:22.583Z,15.09
2022-09-16T12:49:08.877Z,15.00
2022-09-16T12:51:35.636Z,14.68
2022-09-16T12:54:02.448Z,14.82
2022-09-16T12:56:35.398Z,14.90
2022-09-16T12:59:17.958Z,14.68
2022-09-16T13:01:48.230Z,14.75
2022-09-16T13:04:17.491Z,14.73
2022-09-16T13:06:46.509Z,14.41
2022-09-16T13:09:23.774Z,14.33
2022-09-16T13:12:37.795Z,14.25
2022-09-16T13:14:48.430Z,14.19
2022-09-16T13:17:15.353Z,14.25
2022-09-16T13:19:47.908Z,14.10
2022-09-16T13:22:22.960Z,14.06
2022-09-16T13:24:53.287Z,14.24
2022-09-16T13:27:29.017Z,14.57
2022-09-16T13:30:07.424Z,15.08
2022-09-16T13:32:39.139Z,15.40
2022-09-16T13:35:18.176Z,15.42
2022-09-16T13:37:45.856Z,15.30
2022-09-16T13:40:20.385Z,14.97
2022-09-16T13:42:47.379Z,14.68
2022-09-16T13:45:30.429Z,14.74
2022-09-16T13:47:57.623Z,14.56
2022-09-16T13:50:25.487Z,14.58
2022-09-16T13:52:53.005Z,14.64
2022-09-16T13:55:25.337Z,14.60
2022-09-16T13:58:10.720Z,14.45
2022-09-16T14:00:37.588Z,14.31
2022-09-16T14:03:13.686Z,14.31
2022-09-16T14:05:59.097Z,14.18
2022-09-16T14:08:32.077Z,14.08
2022-09-16T14:11:04.778Z,14.19
2022-09-16T14:13:36.473Z,14.17
2022-09-16T14:16:03.698Z,14.26
2022-09-16T14:18:31.753Z,13.91
2022-09-16T14:20:58.569Z,13.88
2022-09-16T14:23:25.691Z,13.81
2022-09-16T14:25:55.585Z,13.92
2022-09-16T14:28:27.410Z,13.75
2022-09-16T14:30:58.381Z,13.86
2022-09-16T14:33:28.545Z,13.67
2022-09-16T14:35:56.712Z,13.60
2022-09-16T14:38:45.105Z,13.80
2022-09-16T14:41:17.850Z,13.98
2022-09-16T14:43:44.660Z,13.95
2022-09-16T14:46:11.502Z,14.01
2022-09-16T14:48:38.946Z,13.96
2022-09-16T14:51:13.422Z,13.77
2022-09-16T14:53:42.591Z,13.71
2022-09-16T14:56:21.849Z,13.78
2022-09-16T14:58:49.578Z,14.00
2022-09-16T15:01:21.117Z,14.10
2022-09-16T15:03:52.450Z,14.02
2022-09-16T15:06:21.145Z,14.15
2022-09-16T15:08:51.066Z,14.04
2022-09-16T15:11:45.965Z,14.07
2022-09-16T15:14:08.328Z,14.04
2022-09-16T15:16:40.334Z,13.94
2022-09-16T15:19:07.165Z,13.84
2022-09-16T15:21:35.207Z,13.77
2022-09-16T15:24:03.828Z,13.74
2022-09-16T15:26:46.993Z,13.62
2022-09-16T15:29:26.991Z,13.60
2022-09-16T15:31:54.915Z,13.80
2022-09-16T15:34:23.221Z,13.83
2022-09-16T15:36:57.757Z,13.96
2022-09-16T15:39:28.294Z,14.19
2022-09-16T15:42:07.264Z,14.53
2022-09-16T15:44:37.426Z,14.46
2022-09-16T15:47:04.879Z,14.38
2022-09-16T15:49:36.355Z,14.59
2022-09-16T15:52:08.700Z,15.08
2022-09-16T15:54:37.862Z,16.15
2022-09-16T15:57:09.560Z,15.71
2022-09-16T15:59:46.577Z,15.02
2022-09-16T16:02:22.298Z,14.75
2022-09-16T16:04:49.756Z,15.68
2022-09-16T16:07:36.508Z,16.59
2022-09-16T16:10:20.670Z,17.25
2022-09-16T16:12:51.365Z,18.24
2022-09-16T16:15:22.389Z,18.41
2022-09-16T16:17:49.653Z,18.22
2022-09-16T16:20:17.776Z,17.88
2022-09-16T16:22:45.090Z,16.96
2022-09-16T16:25:12.851Z,16.99
2022-09-16T16:27:40.037Z,17.32
2022-09-16T16:30:07.222Z,17.86
2022-09-16T16:32:34.997Z,18.63
2022-09-16T16:35:01.792Z,17.99
2022-09-16T16:37:46.928Z,16.66
2022-09-16T16:40:15.877Z,15.66
2022-09-16T16:42:43.861Z,15.25
2022-09-16T16:45:12.070Z,15.24
2022-09-16T16:47:39.505Z,14.99
2022-09-16T16:50:06.459Z,14.58
2022-09-16T16:52:33.292Z,14.19
2022-09-16T16:55:00.067Z,14.10
2022-09-16T16:57:26.861Z,14.15
2022-09-16T16:59:53.647Z,13.83
2022-09-16T17:02:20.594Z,13.42
2022-09-16T17:04:47.456Z,13.22
2022-09-16T17:07:25.729Z,13.04
2022-09-16T17:09:53.832Z,13.06
2022-09-16T17:12:20.691Z,13.00
2022-09-16T17:14:47.596Z,12.76
2022-09-16T17:17:14.438Z,12.47
2022-09-16T17:19:41.238Z,12.73
2022-09-16T17:22:08.073Z,12.68
2022-09-16T17:24:35.185Z,12.41
2022-09-16T17:27:02.156Z,12.47
2022-09-16T17:29:29.141Z,12.49
2022-09-16T17:32:00.652Z,12.33
2022-09-16T17:34:27.560Z,12.31
2022-09-16T17:36:54.587Z,12.25
2022-09-16T17:39:22.369Z,12.17
2022-09-16T17:41:49.789Z,12.15
2022-09-16T17:44:17.232Z,12.14
2022-09-16T17:46:44.501Z,12.15
2022-09-16T17:49:16.542Z,12.25
2022-09-16T17:51:43.754Z,12.23
2022-09-16T17:54:10.988Z,12.13
2022-09-16T17:56:37.877Z,12.08
2022-09-16T17:59:05.134Z,12.16
2022-09-16T18:01:32.093Z,12.13
2022-09-16T18:03:59.039Z,12.07
2022-09-16T18:06:30.855Z,11.65
2022-09-16T18:09:01.315Z,11.81
2022-09-16T18:11:28.377Z,11.89
2022-09-16T18:13:56.348Z,11.89
2022-09-16T18:16:23.660Z,11.83
2022-09-16T18:18:51.990Z,11.93
2022-09-16T18:21:19.719Z,11.94
2022-09-16T18:23:49.785Z,12.02
2022-09-16T18:26:18.667Z,12.10
2022-09-16T18:29:08.567Z,11.93
2022-09-16T18:31:34.854Z,11.94
2022-09-16T18:34:01.650Z,11.89
2022-09-16T18:36:30.091Z,11.86
2022-09-16T18:38:58.190Z,11.79
2022-09-16T18:41:29.342Z,11.79
2022-09-16T18:44:00.551Z,11.69
2022-09-16T18:46:31.584Z,11.75
2022-09-16T18:48:59.067Z,11.74
2022-09-16T18:51:27.811Z,11.82
2022-09-16T18:53:56.420Z,11.58
2022-09-16T18:56:24.368Z,11.72
2022-09-16T18:59:17.198Z,11.73
2022-09-16T19:01:39.757Z,11.68
2022-09-16T19:04:08.373Z,11.73
2022-09-16T19:06:37.030Z,11.61
2022-09-16T19:09:06.553Z,11.69
2022-09-16T19:11:33.870Z,11.49
2022-09-16T19:14:01.136Z,11.50
2022-09-16T19:16:28.451Z,11.38
2022-09-16T19:18:56.069Z,11.44
2022-09-16T19:21:23.537Z,11.17
2022-09-16T19:23:58.684Z,11.19
2022-09-16T19:26:26.528Z,11.10
2022-09-16T19:28:53.408Z,10.95
2022-09-16T19:31:20.617Z,10.52
2022-09-16T19:33:47.993Z,11.05
2022-09-16T19:36:14.983Z,11.06
2022-09-16T19:38:42.584Z,11.11
2022-09-16T19:41:09.978Z,11.17
2022-09-16T19:43:37.494Z,11.26
2022-09-16T19:46:06.150Z,10.95
2022-09-16T19:48:34.485Z,10.92
2022-09-16T19:51:01.470Z,10.93
2022-09-16T19:53:28.439Z,11.08
2022-09-16T19:56:15.037Z,11.08
2022-09-16T19:58:42.091Z,11.18
2022-09-16T20:01:25.872Z,11.31
2022-09-16T20:03:53.149Z,11.37
2022-09-16T20:06:21.086Z,11.30
2022-09-16T20:08:49.258Z,11.37
2022-09-16T20:11:18.600Z,11.40
2022-09-16T20:13:49.357Z,11.32
2022-09-16T20:16:16.497Z,11.57
2022-09-16T20:18:43.372Z,11.59
2022-09-16T20:21:11.650Z,11.66
2022-09-16T20:23:40.009Z,11.58
2022-09-16T20:26:08.017Z,11.81
2022-09-16T20:28:36.248Z,11.77
2022-09-16T20:31:04.244Z,11.82
2022-09-16T20:33:33.595Z,11.68
2022-09-16T20:36:04.526Z,11.75
2022-09-16T20:38:31.342Z,11.56
2022-09-16T20:41:03.273Z,11.64
2022-09-16T20:43:30.348Z,11.53
2022-09-16T20:46:02.644Z,11.44
2022-09-16T20:48:29.489Z,11.57
2022-09-16T20:50:56.292Z,11.66
2022-09-16T20:53:23.158Z,11.59
2022-09-16T20:55:49.950Z,11.57
2022-09-16T20:58:16.778Z,11.47
2022-09-16T21:00:43.639Z,11.49
2022-09-16T21:03:12.114Z,11.32
2022-09-16T21:05:39.163Z,11.36
2022-09-16T21:08:06.622Z,11.25
2022-09-16T21:10:36.038Z,11.36
2022-09-16T21:13:04.342Z,11.17
2022-09-16T21:15:31.632Z,11.33
2022-09-16T21:17:58.513Z,11.29
2022-09-16T21:20:25.390Z,11.37
2022-09-16T21:22:53.416Z,11.34
2022-09-16T21:25:20.365Z,11.24
2022-09-16T21:27:47.254Z,11.30
2022-09-16T21:30:14.519Z,11.29
2022-09-16T21:32:43.084Z,11.23
2022-09-16T21:35:10.266Z,11.09
2022-09-16T21:37:37.072Z,11.25
2022-09-16T21:40:04.257Z,11.23
2022-09-16T21:42:31.466Z,11.25
2022-09-16T21:44:59.831Z,11.28
2022-09-16T21:47:26.852Z,11.26
2022-09-16T21:49:53.985Z,11.20
2022-09-16T21:52:20.968Z,11.24
2022-09-16T21:54:47.776Z,11.22
2022-09-16T21:57:15.121Z,11.25
2022-09-16T21:59:41.922Z,11.27
2022-09-16T22:02:08.902Z,11.20
2022-09-16T22:04:35.769Z,11.08
2022-09-16T22:07:02.630Z,11.11
2022-09-16T22:09:29.725Z,11.27
2022-09-16T22:11:56.667Z,11.31
2022-09-16T22:14:23.880Z,11.24
2022-09-16T22:16:50.766Z,11.02
2022-09-16T22:19:18.540Z,11.10
2022-09-16T22:21:50.188Z,11.19
2022-09-16T22:24:20.085Z,11.08
2022-09-16T22:26:49.670Z,11.16
2022-09-16T22:29:16.915Z,11.06
2022-09-16T22:31:43.791Z,11.09
2022-09-16T22:34:10.765Z,11.12
2022-09-16T22:36:38.570Z,11.14
2022-09-16T22:39:07.145Z,11.04
2022-09-16T22:41:34.452Z,11.03
2022-09-16T22:44:01.622Z,11.16
2022-09-16T22:46:29.707Z,11.19
2022-09-16T22:48:57.712Z,11.02
2022-09-16T22:51:25.595Z,11.17
2022-09-16T22:53:53.174Z,11.26
2022-09-16T22:56:33.671Z,11.07
2022-09-16T22:59:05.551Z,11.05
2022-09-16T23:01:34.799Z,11.03
2022-09-16T23:04:03.082Z,11.05
2022-09-16T23:06:30.995Z,11.03
2022-09-16T23:08:57.938Z,10.95
2022-09-16T23:11:26.907Z,10.85
2022-09-16T23:13:54.794Z,10.83
2022-09-16T23:16:23.543Z,10.83
2022-09-16T23:18:50.567Z,10.86
2022-09-16T23:21:18.981Z,10.89
2022-09-16T23:23:48.369Z,10.86
2022-09-16T23:26:16.548Z,10.86
2022-09-16T23:28:43.950Z,10.84
2022-09-16T23:31:12.509Z,10.83
2022-09-16T23:33:39.829Z,10.75
2022-09-16T23:36:07.310Z,10.67
2022-09-16T23:38:35.996Z,10.74
2022-09-16T23:41:08.043Z,10.81
2022-09-16T23:43:35.072Z,10.68
2022-09-16T23:46:02.913Z,10.80
2022-09-16T23:48:30.853Z,10.70
2022-09-16T23:50:59.127Z,10.57
2022-09-16T23:53:26.644Z,10.66
2022-09-16T23:55:53.476Z,10.54
2022-09-16T23:58:20.477Z,10.62
